Time;durP1;ratioP1;P1;durP2;ratioP2;P2;SDS_P1;SDS_P2;PMS_P1;PMS_P2;Temp;Humidity;BMP_temperature;BMP_pressure;BME280_temperature;BME280_humidity;BME280_pressure;Samples;Min_cycle;Max_cycle;Signal;HPM_P1;HPM_P2
2022/06/25 00:01:37;;;;;;;0.50;0.40;;;22.60;51.30;;;;;;6270036;28;20025;-68
2022/06/25 00:07:59;;;;;;;0.93;0.50;;;22.60;51.40;;;;;;6270127;28;20108;-68
2022/06/25 00:10:59;;;;;;;1.92;0.50;;;22.70;51.50;;;;;;6269596;28;20029;-67
2022/06/25 00:14:06;;;;;;;0.50;0.40;;;22.60;51.40;;;;;;6269963;28;20028;-67
2022/06/25 00:17:07;;;;;;;1.92;0.63;;;22.60;52.10;;;;;;6268330;28;20033;-68
2022/06/25 00:20:08;;;;;;;0.60;0.52;;;22.60;51.40;;;;;;6269985;28;20131;-68
2022/06/25 00:23:09;;;;;;;0.68;0.50;;;22.60;51.40;;;;;;6269668;28;20017;-67
2022/06/25 00:26:09;;;;;;;0.43;0.40;;;22.60;51.40;;;;;;6269655;28;20444;-68
2022/06/25 00:29:10;;;;;;;1.00;0.60;;;22.60;51.40;;;;;;6269244;28;20028;-67
2022/06/25 00:32:11;;;;;;;0.40;0.40;;;22.60;51.40;;;;;;6269383;28;20017;-67
2022/06/25 00:35:12;;;;;;;0.63;0.45;;;22.60;51.40;;;;;;6269202;28;20462;-68
2022/06/25 00:38:12;;;;;;;0.60;0.40;;;22.60;51.40;;;;;;6269296;28;20021;-68
2022/06/25 00:41:13;;;;;;;0.63;0.50;;;22.60;51.40;;;;;;6269176;28;20108;-68
2022/06/25 00:44:14;;;;;;;0.70;0.57;;;22.60;51.40;;;;;;6267367;28;20052;-66
2022/06/25 00:47:15;;;;;;;0.50;0.50;;;22.60;51.40;;;;;;6267577;28;20029;-68
2022/06/25 00:50:16;;;;;;;1.13;0.60;;;22.60;51.50;;;;;;6269148;28;20099;-67
2022/06/25 00:53:19;;;;;;;1.25;0.75;;;22.60;51.50;;;;;;6268826;28;20432;-68
2022/06/25 00:56:21;;;;;;;0.77;0.60;;;22.60;51.50;;;;;;6268696;28;20029;-67
2022/06/25 00:59:27;;;;;;;0.40;0.40;;;22.60;51.00;;;;;;6268977;28;20056;-67
2022/06/25 01:02:29;;;;;;;0.50;0.50;;;22.60;49.90;;;;;;6268028;28;20031;-67
2022/06/25 01:05:30;;;;;;;1.15;0.73;;;22.70;49.40;;;;;;6268794;28;20032;-67
2022/06/25 01:08:35;;;;;;;0.80;0.50;;;22.80;49.00;;;;;;6268641;28;20471;-67
2022/06/25 01:11:36;;;;;;;0.55;0.50;;;22.90;48.60;;;;;;6268967;28;20017;-66
2022/06/25 01:14:37;;;;;;;1.45;0.52;;;22.90;48.30;;;;;;6268646;28;20017;-67
2022/06/25 01:17:49;;;;;;;0.50;0.50;;;23.00;48.00;;;;;;6268930;28;20548;-67
2022/06/25 01:20:50;;;;;;;0.57;0.57;;;23.10;47.80;;;;;;6267486;28;20083;-67
2022/06/25 01:23:52;;;;;;;0.70;0.50;;;23.20;47.80;;;;;;6267540;28;20482;-67
2022/06/25 01:26:53;;;;;;;0.40;0.40;;;23.20;47.60;;;;;;6269127;28;20021;-67
2022/06/25 01:29:54;;;;;;;0.60;0.50;;;23.20;47.50;;;;;;6268343;28;20055;-67
2022/06/25 01:32:55;;;;;;;0.70;0.55;;;23.20;47.40;;;;;;6268930;28;20025;-67
2022/06/25 01:35:55;;;;;;;0.80;0.60;;;23.30;47.30;;;;;;6268459;28;20052;-68
2022/06/25 01:38:56;;;;;;;0.77;0.60;;;23.30;47.60;;;;;;6267348;28;20036;-67
2022/06/25 01:41:57;;;;;;;1.08;0.70;;;23.10;49.60;;;;;;6268398;28;20025;-67
2022/06/25 01:44:58;;;;;;;0.77;0.63;;;22.90;50.10;;;;;;6268100;28;20053;-68
2022/06/25 01:48:00;;;;;;;0.90;0.77;;;22.90;50.30;;;;;;6267950;28;20036;-67
2022/06/25 01:51:02;;;;;;;0.70;0.50;;;22.80;50.10;;;;;;6268265;28;20386;-68
2022/06/25 01:54:02;;;;;;;0.70;0.70;;;22.80;50.20;;;;;;6267741;28;20547;-67
2022/06/25 01:57:03;;;;;;;0.90;0.60;;;22.80;50.40;;;;;;6268068;28;20029;-67
2022/06/25 02:00:12;;;;;;;0.80;0.65;;;22.80;50.60;;;;;;6267991;28;20087;-67
2022/06/25 02:03:14;;;;;;;1.95;0.85;;;22.80;50.60;;;;;;6268004;28;20048;-67
2022/06/25 02:06:15;;;;;;;1.30;0.63;;;22.80;50.70;;;;;;6267556;28;20610;-68
2022/06/25 02:09:16;;;;;;;0.63;0.60;;;22.70;50.70;;;;;;6266495;28;20024;-66
2022/06/25 02:12:16;;;;;;;1.30;0.80;;;22.80;50.70;;;;;;6269616;28;20025;-67
2022/06/25 02:15:17;;;;;;;0.90;0.70;;;22.70;50.70;;;;;;6271995;28;20021;-67
2022/06/25 02:18:18;;;;;;;0.70;0.63;;;22.80;50.80;;;;;;6272175;28;20660;-68
2022/06/25 02:21:19;;;;;;;2.97;0.73;;;22.70;50.70;;;;;;6272231;28;20021;-67
2022/06/25 02:24:20;;;;;;;0.80;0.60;;;22.70;50.70;;;;;;6272080;28;20029;-68
2022/06/25 02:27:20;;;;;;;1.00;0.80;;;22.70;50.80;;;;;;6272172;28;20032;-67
2022/06/25 02:30:21;;;;;;;1.15;0.90;;;22.70;50.80;;;;;;6271595;28;20131;-68
2022/06/25 02:33:22;;;;;;;0.70;0.70;;;22.70;50.80;;;;;;6270789;28;20021;-67
2022/06/25 02:36:23;;;;;;;0.70;0.60;;;22.70;50.90;;;;;;6271625;28;20028;-68
2022/06/25 02:39:23;;;;;;;1.00;0.77;;;22.70;50.90;;;;;;6272008;28;20056;-67
2022/06/25 02:42:24;;;;;;;0.68;0.60;;;22.70;50.90;;;;;;6272012;28;20029;-68
2022/06/25 02:45:25;;;;;;;0.70;0.60;;;22.70;50.90;;;;;;6271518;28;20049;-67
2022/06/25 02:48:25;;;;;;;1.25;0.80;;;22.70;51.00;;;;;;6271533;28;20027;-67
2022/06/25 02:51:26;;;;;;;0.98;0.82;;;22.70;51.00;;;;;;6270060;28;20418;-67
2022/06/25 02:54:27;;;;;;;1.65;0.85;;;22.70;51.00;;;;;;6271521;28;20052;-68
2022/06/25 03:00:47;;;;;;;0.98;0.80;;;22.70;51.10;;;;;;6271743;28;20029;-67
2022/06/25 03:03:48;;;;;;;1.80;1.00;;;22.70;51.10;;;;;;6269802;28;20040;-68
2022/06/25 03:06:49;;;;;;;0.90;0.70;;;22.70;51.10;;;;;;6270919;28;20098;-67
2022/06/25 03:09:50;;;;;;;1.08;0.80;;;22.70;51.10;;;;;;6270767;28;20037;-67
2022/06/25 03:12:51;;;;;;;0.75;0.70;;;22.70;51.10;;;;;;6269991;28;20032;-68
2022/06/25 03:15:51;;;;;;;0.85;0.70;;;22.70;51.10;;;;;;6270903;28;20078;-68
2022/06/25 03:18:52;;;;;;;0.90;0.80;;;22.70;51.20;;;;;;6270930;28;20486;-67
2022/06/25 03:21:53;;;;;;;1.02;0.90;;;22.70;51.20;;;;;;6270613;28;20025;-67
2022/06/25 03:24:54;;;;;;;0.82;0.70;;;22.70;51.20;;;;;;6268623;28;20021;-68
2022/06/25 03:27:55;;;;;;;1.10;0.90;;;22.70;51.20;;;;;;6270504;28;20029;-67
2022/06/25 03:30:56;;;;;;;1.00;0.80;;;22.70;51.20;;;;;;6272011;28;20025;-67
2022/06/25 03:33:57;;;;;;;1.10;0.90;;;22.70;51.20;;;;;;6272490;28;20021;-68
2022/06/25 03:36:58;;;;;;;0.95;0.80;;;22.70;51.20;;;;;;6271555;28;20029;-68
2022/06/25 03:39:59;;;;;;;1.55;0.90;;;22.70;51.30;;;;;;6270474;28;20037;-67
2022/06/25 03:42:59;;;;;;;1.48;0.90;;;22.70;51.20;;;;;;6270109;28;20110;-67
2022/06/25 03:46:00;;;;;;;1.52;0.95;;;22.70;51.30;;;;;;6270063;28;20035;-68
2022/06/25 03:49:01;;;;;;;1.80;1.10;;;22.70;51.30;;;;;;6270328;28;20021;-67
2022/06/25 03:52:03;;;;;;;1.15;0.88;;;22.70;51.30;;;;;;6270006;28;20040;-67
2022/06/25 03:55:04;;;;;;;0.88;0.82;;;22.70;51.30;;;;;;6270180;28;20021;-68
2022/06/25 03:58:05;;;;;;;1.38;0.95;;;22.70;51.30;;;;;;6269981;28;20096;-67
2022/06/25 04:01:06;;;;;;;1.45;0.90;;;22.70;51.30;;;;;;6269856;28;20021;-68
2022/06/25 04:04:07;;;;;;;1.13;0.80;;;22.70;51.40;;;;;;6269727;28;20025;-68
2022/06/25 04:07:07;;;;;;;1.48;0.93;;;22.70;51.30;;;;;;6268396;28;20025;-67
2022/06/25 04:10:09;;;;;;;2.00;1.10;;;22.70;52.10;;;;;;6268273;28;20032;-66
2022/06/25 04:13:10;;;;;;;1.77;0.90;;;22.70;51.40;;;;;;6269660;28;20041;-67
2022/06/25 04:16:11;;;;;;;0.75;0.68;;;22.60;51.30;;;;;;6269730;28;20363;-68
2022/06/25 04:19:11;;;;;;;0.82;0.80;;;22.70;51.40;;;;;;6269402;28;20073;-68
2022/06/25 04:22:12;;;;;;;1.52;0.90;;;22.70;51.40;;;;;;6269660;28;20496;-67
2022/06/25 04:25:13;;;;;;;1.65;1.17;;;22.60;51.30;;;;;;6269324;28;20025;-67
2022/06/25 04:31:35;;;;;;;1.08;0.95;;;22.70;51.40;;;;;;6268959;28;20033;-68
2022/06/25 04:34:35;;;;;;;1.90;0.90;;;22.70;51.40;;;;;;6269181;28;20025;-68
2022/06/25 04:37:36;;;;;;;1.33;1.23;;;22.70;51.50;;;;;;6269366;28;20028;-68
2022/06/25 04:40:37;;;;;;;1.45;1.10;;;22.70;51.50;;;;;;6268884;28;20028;-67
2022/06/25 04:43:38;;;;;;;0.93;0.90;;;22.70;51.40;;;;;;6268432;28;20204;-67
2022/06/25 04:46:38;;;;;;;1.58;1.10;;;22.70;51.50;;;;;;6268665;28;20055;-68
2022/06/25 04:49:39;;;;;;;1.42;1.20;;;22.70;51.50;;;;;;6268702;28;20017;-68
2022/06/25 04:52:40;;;;;;;1.00;0.80;;;22.70;51.50;;;;;;6268646;28;20031;-67
2022/06/25 04:55:42;;;;;;;1.00;0.90;;;22.70;51.50;;;;;;6268776;28;20142;-67
2022/06/25 04:58:42;;;;;;;1.58;1.02;;;22.70;51.50;;;;;;6268963;28;20076;-67
2022/06/25 05:01:43;;;;;;;0.98;0.82;;;22.70;51.50;;;;;;6268280;28;20025;-67
2022/06/25 05:04:44;;;;;;;1.67;0.98;;;22.70;51.60;;;;;;6268077;28;20047;-67
2022/06/25 05:07:44;;;;;;;1.20;1.10;;;22.70;51.60;;;;;;6268401;28;20025;-68
2022/06/25 05:10:45;;;;;;;1.10;1.00;;;22.70;51.60;;;;;;6268101;28;20017;-67
2022/06/25 05:13:48;;;;;;;1.33;1.00;;;22.70;51.60;;;;;;6268100;28;20514;-68
2022/06/25 05:16:48;;;;;;;1.48;1.17;;;22.70;51.60;;;;;;6268171;28;20033;-67
2022/06/25 05:19:49;;;;;;;1.48;0.80;;;22.60;51.50;;;;;;6268079;28;20080;-68
2022/06/25 05:22:49;;;;;;;0.98;0.88;;;22.70;51.60;;;;;;6266262;28;20375;-67
2022/06/25 05:25:50;;;;;;;1.38;1.15;;;22.70;51.60;;;;;;6266748;28;20485;-67
2022/06/25 05:28:51;;;;;;;1.23;0.93;;;22.60;51.50;;;;;;6268298;28;20039;-68
2022/06/25 05:31:52;;;;;;;1.10;0.98;;;22.70;51.60;;;;;;6267993;28;20025;-67
2022/06/25 05:34:54;;;;;;;1.42;1.02;;;22.70;51.60;;;;;;6266099;28;20075;-67
2022/06/25 05:37:55;;;;;;;1.15;0.93;;;22.80;53.40;;;;;;6268584;28;20485;-67
2022/06/25 05:40:57;;;;;;;1.20;1.10;;;22.80;53.40;;;;;;6267884;28;20029;-67
2022/06/25 05:43:57;;;;;;;1.08;0.90;;;22.70;52.60;;;;;;6267317;28;20040;-67
2022/06/25 05:46:59;;;;;;;1.10;1.00;;;22.70;52.50;;;;;;6270083;28;20275;-68
2022/06/25 05:50:01;;;;;;;1.20;1.02;;;22.70;52.50;;;;;;6273435;28;20032;-67
2022/06/25 05:53:02;;;;;;;1.77;1.27;;;22.70;52.40;;;;;;6273680;28;20017;-68
2022/06/25 05:56:03;;;;;;;1.92;1.20;;;22.70;52.30;;;;;;6273446;28;20040;-67
2022/06/25 05:59:04;;;;;;;1.48;1.10;;;22.70;52.40;;;;;;6273395;28;20029;-67
2022/06/25 06:02:05;;;;;;;0.98;0.90;;;22.60;52.10;;;;;;6273437;28;20074;-68
2022/06/25 06:05:06;;;;;;;0.95;0.85;;;22.60;52.00;;;;;;6271975;28;20053;-67
2022/06/25 06:08:07;;;;;;;1.30;1.13;;;22.70;52.10;;;;;;6266870;28;20402;-67
2022/06/25 06:11:08;;;;;;;1.25;1.10;;;22.70;52.10;;;;;;6269578;28;20025;-67
2022/06/25 06:14:09;;;;;;;1.45;1.25;;;22.60;52.00;;;;;;6271088;28;20096;-67
2022/06/25 06:17:10;;;;;;;1.42;1.15;;;22.70;52.00;;;;;;6270492;28;20056;-67
2022/06/25 06:20:11;;;;;;;1.40;0.90;;;22.60;51.90;;;;;;6269426;28;20108;-66
2022/06/25 06:23:11;;;;;;;1.30;0.90;;;22.60;51.90;;;;;;6270745;28;20025;-67
2022/06/25 06:26:12;;;;;;;1.52;1.20;;;22.70;52.00;;;;;;6270924;28;20025;-67
2022/06/25 06:29:14;;;;;;;1.05;0.80;;;22.70;52.00;;;;;;6270683;28;20096;-67
2022/06/25 06:32:15;;;;;;;1.35;0.90;;;22.60;51.90;;;;;;6270603;28;20781;-67
2022/06/25 06:35:16;;;;;;;1.40;1.08;;;22.70;52.00;;;;;;6270521;28;20021;-67
2022/06/25 06:38:17;;;;;;;1.25;1.10;;;22.70;52.00;;;;;;6270020;28;20021;-67
2022/06/25 06:41:18;;;;;;;0.88;0.80;;;22.70;52.00;;;;;;6270403;28;20040;-67
2022/06/25 06:44:19;;;;;;;1.15;1.00;;;22.70;52.00;;;;;;6268983;28;20057;-67
2022/06/25 06:47:19;;;;;;;1.27;1.08;;;22.70;52.00;;;;;;6269778;28;20047;-67
2022/06/25 06:50:20;;;;;;;1.35;0.98;;;22.70;52.10;;;;;;6269134;28;20076;-67
2022/06/25 06:53:22;;;;;;;1.75;1.08;;;22.70;52.10;;;;;;6270384;28;20024;-67
2022/06/25 06:56:23;;;;;;;1.50;1.00;;;22.70;52.10;;;;;;6261636;28;20041;-67
2022/06/25 06:59:23;;;;;;;1.13;0.88;;;22.70;52.10;;;;;;6278888;28;20021;-67
2022/06/25 07:02:27;;;;;;;1.42;1.15;;;22.70;52.10;;;;;;6295946;28;20048;-68
2022/06/25 07:05:28;;;;;;;1.33;1.08;;;22.70;52.10;;;;;;6292574;28;20521;-67
2022/06/25 07:08:29;;;;;;;1.33;1.10;;;22.70;52.30;;;;;;6269465;28;20021;-67
2022/06/25 07:11:30;;;;;;;1.83;1.20;;;22.70;52.10;;;;;;6269292;28;20092;-67
2022/06/25 07:14:31;;;;;;;1.55;1.10;;;22.80;52.30;;;;;;6267573;28;20501;-67
2022/06/25 07:17:31;;;;;;;1.10;1.00;;;22.80;52.60;;;;;;6269076;28;20029;-67
2022/06/25 07:20:32;;;;;;;1.73;1.30;;;22.90;52.30;;;;;;6264489;28;20029;-68
2022/06/25 07:23:33;;;;;;;4.18;1.10;;;23.00;52.10;;;;;;6245093;28;20422;-67
2022/06/25 07:26:35;;;;;;;1.20;1.00;;;23.00;52.00;;;;;;6260684;28;20017;-67
2022/06/25 07:29:36;;;;;;;1.42;1.10;;;23.00;51.90;;;;;;6255453;28;20075;-67
2022/06/25 07:32:36;;;;;;;1.42;1.00;;;23.00;51.90;;;;;;6268382;28;20039;-67
2022/06/25 07:35:37;;;;;;;1.60;1.00;;;23.20;52.40;;;;;;6268547;28;20021;-68
2022/06/25 07:38:38;;;;;;;1.27;0.98;;;23.30;52.60;;;;;;6268271;28;20029;-67
2022/06/25 07:41:39;;;;;;;1.48;0.98;;;23.30;53.00;;;;;;6267994;28;20032;-68
2022/06/25 07:44:40;;;;;;;1.45;1.05;;;23.30;53.60;;;;;;6280715;28;20072;-67
2022/06/25 07:47:41;;;;;;;1.70;1.10;;;23.30;52.80;;;;;;6254225;28;20037;-68
2022/06/25 07:54:01;;;;;;;1.38;1.00;;;23.30;52.90;;;;;;6270845;28;20029;-67
2022/06/25 07:57:02;;;;;;;1.13;1.02;;;23.40;53.40;;;;;;6292415;28;20042;-67
2022/06/25 08:00:04;;;;;;;4.47;1.02;;;23.40;53.90;;;;;;6266939;28;20053;-67
2022/06/25 08:03:05;;;;;;;6.65;1.20;;;23.40;52.90;;;;;;6268496;28;20025;-67
2022/06/25 08:06:06;;;;;;;6.88;1.08;;;23.50;53.30;;;;;;6267870;28;20075;-67
2022/06/25 08:09:10;;;;;;;1.25;1.00;;;23.40;53.20;;;;;;6267404;28;20025;-67
2022/06/25 08:12:11;;;;;;;4.30;1.23;;;23.30;52.90;;;;;;6267822;28;20025;-67
2022/06/25 08:15:12;;;;;;;1.55;1.00;;;23.30;52.80;;;;;;6265977;28;20033;-67
2022/06/25 08:18:13;;;;;;;1.27;1.10;;;23.30;52.80;;;;;;6267090;28;20033;-70
2022/06/25 08:21:13;;;;;;;1.48;1.10;;;23.30;52.70;;;;;;6266883;28;20029;-67
2022/06/25 08:24:14;;;;;;;1.00;0.90;;;23.30;52.60;;;;;;6265920;28;20024;-67
2022/06/25 08:27:15;;;;;;;2.13;1.10;;;23.30;52.60;;;;;;6266937;28;20091;-67
2022/06/25 08:30:17;;;;;;;1.45;1.20;;;23.30;52.60;;;;;;6264782;28;20025;-67
2022/06/25 08:33:18;;;;;;;1.05;0.90;;;23.30;52.40;;;;;;6267411;28;20099;-67
2022/06/25 08:36:18;;;;;;;1.73;1.20;;;23.30;52.40;;;;;;6267035;28;20090;-67
2022/06/25 08:39:19;;;;;;;1.30;1.10;;;23.30;52.40;;;;;;6267094;28;20040;-67
2022/06/25 08:42:20;;;;;;;2.13;1.13;;;23.30;52.40;;;;;;6267158;28;20037;-67
2022/06/25 08:45:21;;;;;;;1.70;1.00;;;23.30;52.30;;;;;;6266821;28;20139;-67
2022/06/25 08:48:24;;;;;;;1.45;1.10;;;23.30;52.30;;;;;;6266638;28;20024;-67
2022/06/25 08:51:28;;;;;;;1.20;1.00;;;23.30;52.30;;;;;;6267020;28;20052;-67
2022/06/25 08:54:32;;;;;;;1.50;1.20;;;23.30;52.20;;;;;;6266935;28;20013;-67
2022/06/25 08:57:34;;;;;;;1.77;1.20;;;23.30;52.30;;;;;;6266312;28;20186;-67
2022/06/25 09:00:38;;;;;;;1.30;1.00;;;23.30;52.30;;;;;;6285597;28;20028;-67
2022/06/25 09:03:39;;;;;;;2.45;1.27;;;23.30;52.30;;;;;;6275702;28;20079;-67
2022/06/25 09:06:40;;;;;;;2.88;1.00;;;23.30;52.20;;;;;;6266187;28;20029;-67
2022/06/25 09:09:46;;;;;;;1.38;1.17;;;23.40;52.30;;;;;;6270700;28;20076;-67
2022/06/25 09:12:55;;;;;;;1.33;1.00;;;23.30;52.20;;;;;;6270816;28;20083;-68
2022/06/25 09:15:57;;;;;;;1.13;0.98;;;23.30;52.20;;;;;;6266780;28;20036;-67
2022/06/25 09:18:57;;;;;;;2.67;0.95;;;23.40;52.30;;;;;;6264911;28;20032;-68
2022/06/25 09:21:59;;;;;;;1.67;1.10;;;23.40;52.40;;;;;;6266778;28;20029;-69
2022/06/25 09:25:00;;;;;;;1.42;1.00;;;23.40;52.30;;;;;;6265821;28;20074;-68
2022/06/25 09:28:01;;;;;;;1.08;0.98;;;23.50;52.30;;;;;;6265995;28;20413;-68
2022/06/25 09:31:03;;;;;;;5.25;1.20;;;23.50;52.40;;;;;;6257134;28;20132;-68
2022/06/25 09:34:08;;;;;;;5.68;1.45;;;23.50;52.40;;;;;;6264832;28;20078;-69
2022/06/25 09:37:27;;;;;;;4.07;1.00;;;23.50;52.60;;;;;;6265879;28;20116;-69
2022/06/25 09:40:28;;;;;;;9.82;1.40;;;23.50;52.50;;;;;;6264555;28;20040;-68
2022/06/25 09:43:36;;;;;;;3.30;1.10;;;23.50;52.40;;;;;;6265336;28;20106;-67
2022/06/25 09:46:53;;;;;;;5.90;1.20;;;23.50;52.40;;;;;;6265707;28;20033;-68
2022/06/25 09:50:12;;;;;;;2.10;1.45;;;23.50;52.50;;;;;;6266033;28;20398;-68
2022/06/25 09:53:13;;;;;;;4.60;1.20;;;23.50;52.40;;;;;;6268199;28;20017;-69
2022/06/25 09:56:24;;;;;;;1.70;1.17;;;23.40;52.40;;;;;;6263960;28;20025;-68
2022/06/25 09:59:28;;;;;;;4.72;1.10;;;23.40;52.40;;;;;;6264298;28;20033;-69
2022/06/25 10:02:31;;;;;;;2.20;1.13;;;23.40;52.40;;;;;;6264166;28;20033;-69
2022/06/25 10:05:37;;;;;;;2.65;1.40;;;23.40;52.40;;;;;;6265929;28;20025;-69
2022/06/25 10:08:38;;;;;;;1.75;1.00;;;23.40;52.40;;;;;;6251293;28;20128;-68
2022/06/25 10:11:39;;;;;;;3.58;1.40;;;23.40;52.30;;;;;;6265493;28;20033;-69
2022/06/25 10:14:40;;;;;;;1.45;1.10;;;23.40;52.30;;;;;;6265268;28;20032;-68
2022/06/25 10:17:42;;;;;;;2.03;1.15;;;23.40;52.30;;;;;;6260625;28;20025;-70
2022/06/25 10:20:44;;;;;;;2.53;1.10;;;23.40;52.30;;;;;;6263861;28;20116;-68
2022/06/25 10:23:49;;;;;;;1.60;1.08;;;23.40;52.30;;;;;;6261264;28;20083;-69
2022/06/25 10:26:51;;;;;;;1.85;1.08;;;23.40;52.30;;;;;;6262549;28;20025;-69
2022/06/25 10:29:54;;;;;;;1.73;1.10;;;23.40;52.60;;;;;;6243760;28;20098;-67
2022/06/25 10:32:56;;;;;;;1.50;1.10;;;23.40;52.60;;;;;;6261060;28;20551;-68
2022/06/25 10:36:04;;;;;;;0.70;0.70;;;23.40;52.70;;;;;;6267748;28;20237;-68
2022/06/25 10:39:27;;;;;;;1.75;1.00;;;23.30;52.70;;;;;;6269745;28;20678;-69
2022/06/25 10:45:48;;;;;;;1.80;0.95;;;23.30;52.70;;;;;;6269212;28;20029;-69
2022/06/25 10:48:56;;;;;;;2.30;1.10;;;23.30;52.70;;;;;;6269447;28;20076;-69
2022/06/25 10:51:57;;;;;;;0.95;0.85;;;23.20;52.60;;;;;;6269312;28;20013;-69
2022/06/25 10:54:58;;;;;;;1.08;0.88;;;23.20;52.60;;;;;;6269193;28;20056;-69
2022/06/25 10:58:18;;;;;;;1.05;0.95;;;23.20;52.60;;;;;;6269200;28;20021;-70
2022/06/25 11:01:21;;;;;;;2.03;1.00;;;23.20;52.60;;;;;;6269036;28;20029;-69
2022/06/25 11:04:29;;;;;;;1.52;0.95;;;23.20;52.60;;;;;;6267629;28;20047;-69
2022/06/25 11:07:32;;;;;;;1.10;0.90;;;23.20;52.60;;;;;;6268605;28;20037;-69
2022/06/25 11:10:38;;;;;;;1.35;0.80;;;23.20;52.60;;;;;;6243375;28;20021;-70
2022/06/25 11:13:42;;;;;;;1.00;0.90;;;23.20;52.60;;;;;;6267626;28;20515;-69
2022/06/25 11:16:43;;;;;;;1.45;1.05;;;23.20;53.30;;;;;;6267017;28;20048;-69
2022/06/25 11:19:44;;;;;;;2.83;1.15;;;23.30;52.90;;;;;;6267862;28;20074;-69
2022/06/25 11:22:49;;;;;;;1.48;1.00;;;23.30;53.00;;;;;;6260129;28;20043;-68
2022/06/25 11:29:21;;;;;;;1.30;1.00;;;23.30;52.80;;;;;;6268686;28;20029;-69
2022/06/25 11:32:28;;;;;;;1.05;0.95;;;23.30;52.70;;;;;;6268387;28;20534;-68
2022/06/25 11:35:40;;;;;;;1.42;1.00;;;23.30;52.70;;;;;;6268288;28;20064;-68
2022/06/25 11:38:43;;;;;;;1.63;0.80;;;23.40;52.60;;;;;;6267915;28;20048;-69
2022/06/25 11:41:49;;;;;;;1.08;0.93;;;23.30;52.50;;;;;;6268335;28;20018;-69
2022/06/25 11:44:54;;;;;;;1.60;1.15;;;23.30;52.50;;;;;;6265695;28;20052;-69
2022/06/25 11:47:55;;;;;;;1.10;0.93;;;23.40;52.60;;;;;;6268197;28;20025;-68
2022/06/25 11:51:00;;;;;;;1.42;1.10;;;23.40;52.50;;;;;;6267791;28;20047;-69
2022/06/25 11:54:04;;;;;;;;;;;23.40;52.50;;;;;;6270069;28;20025;-69
2022/06/25 11:57:06;;;;;;;1.20;0.80;;;23.40;52.40;;;;;;6267185;28;20416;-69
2022/06/25 12:00:13;;;;;;;0.80;0.80;;;23.40;52.40;;;;;;6267756;28;20020;-68
2022/06/25 12:03:14;;;;;;;2.08;0.93;;;23.40;52.50;;;;;;6266449;28;20028;-69
2022/06/25 12:06:15;;;;;;;1.20;1.00;;;23.40;52.50;;;;;;6267273;28;20060;-68
2022/06/25 12:09:18;;;;;;;0.73;0.73;;;23.40;52.60;;;;;;6267212;28;20080;-69
2022/06/25 12:12:21;;;;;;;1.85;1.15;;;23.40;52.60;;;;;;6267478;28;20021;-68
2022/06/25 12:15:29;;;;;;;1.55;0.93;;;23.40;52.60;;;;;;6264886;28;20031;-69
2022/06/25 12:18:39;;;;;;;1.60;0.93;;;23.40;52.80;;;;;;6265820;28;20070;-68
2022/06/25 12:21:40;;;;;;;6.95;1.10;;;23.40;52.60;;;;;;6267148;28;20132;-68
2022/06/25 12:24:46;;;;;;;4.50;1.10;;;23.50;53.80;;;;;;6266645;28;20098;-68
2022/06/25 12:27:48;;;;;;;5.43;0.88;;;23.40;51.30;;;;;;6266123;28;20410;-69
2022/06/25 12:30:49;;;;;;;0.98;0.80;;;23.40;50.40;;;;;;6266830;28;20096;-69
2022/06/25 12:33:51;;;;;;;1.30;1.00;;;23.50;49.70;;;;;;6265463;28;20543;-68
2022/06/25 12:36:53;;;;;;;1.13;0.70;;;23.50;49.30;;;;;;6266744;28;20048;-68
2022/06/25 12:39:57;;;;;;;1.52;1.23;;;23.60;48.80;;;;;;6265318;28;20060;-70
2022/06/25 12:42:59;;;;;;;3.10;0.90;;;23.70;48.60;;;;;;6266859;28;20040;-67
2022/06/25 12:46:10;;;;;;;1.20;0.90;;;23.70;48.30;;;;;;6264841;28;20363;-69
2022/06/25 12:49:11;;;;;;;1.00;0.80;;;23.80;48.20;;;;;;6265008;28;20137;-69
2022/06/25 12:52:19;;;;;;;2.10;1.00;;;23.80;48.00;;;;;;6266092;28;20025;-68
2022/06/25 12:55:22;;;;;;;0.70;0.70;;;23.90;48.00;;;;;;6268703;28;20033;-69
2022/06/25 12:58:34;;;;;;;1.30;0.90;;;23.90;47.90;;;;;;6265569;28;20116;-69
2022/06/25 13:01:36;;;;;;;1.35;1.05;;;23.90;47.70;;;;;;6259095;28;20390;-69
2022/06/25 13:04:37;;;;;;;3.28;0.70;;;23.90;47.60;;;;;;6269536;28;20039;-70
2022/06/25 13:07:38;;;;;;;0.77;0.75;;;23.90;47.50;;;;;;6266828;28;20075;-69
2022/06/25 13:10:42;;;;;;;1.20;0.95;;;23.90;47.50;;;;;;6268117;28;20032;-70
2022/06/25 13:13:42;;;;;;;0.90;0.80;;;23.90;47.50;;;;;;6267874;28;20017;-69
2022/06/25 13:16:43;;;;;;;1.30;1.00;;;23.90;47.50;;;;;;6267865;28;20029;-70
2022/06/25 13:19:45;;;;;;;1.35;0.90;;;23.90;47.40;;;;;;6267244;28;20737;-69
2022/06/25 13:22:46;;;;;;;1.00;0.70;;;23.90;47.40;;;;;;6267348;28;20055;-69
2022/06/25 13:25:46;;;;;;;0.60;0.60;;;23.90;47.40;;;;;;6264917;28;20530;-70
2022/06/25 13:28:47;;;;;;;0.73;0.70;;;23.90;47.40;;;;;;6265738;28;20120;-70
2022/06/25 13:31:48;;;;;;;1.05;0.80;;;23.90;47.40;;;;;;6266394;28;20017;-69
2022/06/25 13:34:49;;;;;;;0.95;0.60;;;23.90;47.20;;;;;;6267342;28;20025;-68
2022/06/25 13:37:50;;;;;;;1.60;0.80;;;23.90;47.10;;;;;;6266385;28;20421;-70
2022/06/25 13:40:50;;;;;;;0.85;0.80;;;23.90;47.00;;;;;;6265975;28;20021;-69
2022/06/25 13:43:54;;;;;;;0.75;0.70;;;23.90;47.00;;;;;;6265907;28;20056;-70
2022/06/25 13:46:54;;;;;;;1.05;0.80;;;23.90;47.10;;;;;;6263963;28;20033;-69
2022/06/25 13:49:55;;;;;;;0.57;0.55;;;23.80;47.00;;;;;;6265199;28;20572;-69
2022/06/25 13:52:56;;;;;;;0.60;0.60;;;23.90;47.00;;;;;;6265489;28;20013;-68
2022/06/25 13:55:57;;;;;;;0.68;0.60;;;23.90;46.90;;;;;;6265191;28;20032;-69
2022/06/25 13:58:57;;;;;;;0.77;0.70;;;23.80;46.80;;;;;;6265492;28;20021;-69
2022/06/25 14:01:58;;;;;;;0.80;0.70;;;23.80;46.80;;;;;;6265438;28;20102;-69
2022/06/25 14:04:59;;;;;;;1.42;0.70;;;23.80;46.70;;;;;;6265306;28;20029;-69
2022/06/25 14:07:59;;;;;;;0.77;0.77;;;23.80;46.70;;;;;;6267455;28;20114;-69
2022/06/25 14:11:00;;;;;;;0.85;0.70;;;23.80;46.70;;;;;;6268817;28;20024;-69
2022/06/25 14:14:01;;;;;;;0.80;0.60;;;23.80;46.60;;;;;;6270028;28;20021;-69
2022/06/25 14:17:02;;;;;;;1.48;1.15;;;23.80;46.60;;;;;;6269476;28;20033;-69
2022/06/25 14:20:05;;;;;;;0.82;0.60;;;23.90;46.60;;;;;;6269925;28;20024;-69
2022/06/25 14:23:06;;;;;;;1.52;0.80;;;23.90;46.60;;;;;;6277209;28;20103;-69
2022/06/25 14:26:06;;;;;;;1.15;0.68;;;23.80;46.40;;;;;;6283459;28;20044;-69
2022/06/25 14:29:07;;;;;;;1.00;0.80;;;23.90;46.50;;;;;;6290533;28;20020;-69
2022/06/25 14:32:08;;;;;;;0.90;0.70;;;23.90;46.40;;;;;;6274900;28;20025;-69
2022/06/25 14:35:10;;;;;;;0.68;0.68;;;23.80;46.40;;;;;;6269764;28;20021;-68
2022/06/25 14:44:50;;;;;;;5.93;0.80;;;23.90;46.40;;;;;;6268836;28;20049;-70
2022/06/25 14:47:51;;;;;;;1.15;0.80;;;23.90;46.40;;;;;;6268159;28;20154;-68
2022/06/25 14:50:52;;;;;;;1.77;0.90;;;23.90;46.30;;;;;;6267951;28;20013;-68
2022/06/25 14:53:53;;;;;;;1.00;0.80;;;23.90;46.30;;;;;;6249349;28;20043;-70
2022/06/25 14:56:54;;;;;;;0.80;0.70;;;23.90;46.30;;;;;;6294179;28;20021;-69
2022/06/25 14:59:55;;;;;;;1.00;0.80;;;23.90;46.30;;;;;;6293726;28;20082;-69
2022/06/25 15:02:56;;;;;;;0.70;0.70;;;23.90;46.20;;;;;;6271850;28;20025;-69
2022/06/25 15:05:57;;;;;;;1.73;0.90;;;24.00;46.40;;;;;;6269102;28;20546;-69
2022/06/25 15:08:58;;;;;;;1.50;0.75;;;24.00;46.30;;;;;;6268511;28;20025;-69
2022/06/25 15:11:59;;;;;;;1.85;0.80;;;24.00;46.20;;;;;;6266818;28;20486;-69
2022/06/25 15:14:59;;;;;;;1.75;0.85;;;24.00;46.30;;;;;;6270061;28;20021;-68
2022/06/25 15:18:00;;;;;;;2.58;1.10;;;24.00;46.20;;;;;;6270302;28;20029;-68
2022/06/25 15:21:01;;;;;;;0.77;0.73;;;24.00;46.10;;;;;;6268816;28;20146;-69
2022/06/25 15:24:02;;;;;;;2.25;0.85;;;24.00;46.00;;;;;;6269669;28;20049;-67
2022/06/25 15:27:03;;;;;;;0.95;0.70;;;24.00;46.00;;;;;;6269637;28;20105;-68
2022/06/25 15:30:05;;;;;;;0.90;0.80;;;24.00;45.90;;;;;;6268698;28;20049;-67
2022/06/25 15:33:06;;;;;;;2.05;0.70;;;24.00;45.80;;;;;;6268041;28;20062;-68
2022/06/25 15:36:07;;;;;;;1.25;0.80;;;24.00;45.70;;;;;;6268499;28;20013;-68
2022/06/25 15:39:08;;;;;;;1.20;0.82;;;24.00;45.70;;;;;;6268586;28;20537;-67
2022/06/25 15:42:09;;;;;;;0.63;0.52;;;24.00;45.70;;;;;;6268254;28;20021;-68
2022/06/25 15:45:10;;;;;;;1.40;0.80;;;24.00;45.60;;;;;;6266865;28;20052;-68
2022/06/25 15:48:10;;;;;;;1.15;0.60;;;24.00;45.60;;;;;;6266909;28;20508;-67
2022/06/25 15:51:11;;;;;;;1.13;0.82;;;24.00;45.60;;;;;;6267977;28;20029;-68
2022/06/25 15:54:12;;;;;;;1.23;0.70;;;24.00;45.50;;;;;;6270999;28;20071;-68
2022/06/25 15:57:13;;;;;;;0.75;0.65;;;24.00;45.60;;;;;;6267841;28;20434;-67
2022/06/25 16:00:14;;;;;;;0.85;0.70;;;24.00;46.30;;;;;;6267739;28;20064;-67
2022/06/25 16:03:15;;;;;;;1.63;0.88;;;24.00;45.50;;;;;;6267442;28;20052;-68
2022/06/25 16:06:16;;;;;;;0.80;0.80;;;24.00;45.40;;;;;;6267799;28;20490;-68
2022/06/25 16:09:16;;;;;;;1.85;0.73;;;24.00;45.40;;;;;;6266168;28;20017;-68
2022/06/25 16:12:17;;;;;;;2.55;1.05;;;24.00;45.40;;;;;;6267071;28;20025;-68
2022/06/25 16:15:18;;;;;;;0.63;0.63;;;24.00;45.30;;;;;;6266532;28;20402;-68